Aérodrome :
LOGIN :

S'inscrire | Disclaimer

   EN    FR    IT 

 










Légende :    VFR   VFR Marginal   IFR   IFR Intensif   IFR Très Intensif
Visi : 
Plafond : 
>= 8 km
>= 3000ft
5 à 8 km
1000 à 3000 ft
1500m à 5 km
500 à 1000 ft
800 à 1500m
200 à 500 ft
< 800m
< 200 ft
Symboles :   Orages  Brouillard  Fortes neiges  Fortes précipitations  Vent > 20 kt
SIGMETs :   Divers  Orages  Givrage  Turbulence  Onde Orograph.  Cendres Volcan.






- Altitude de l'aérodrome : 821 ft
- Code IATA : LYS


LFLL - Lyon St Exupéry / Satolas

DERNIER METAR :
  • 282200Z 33009KT 9999 BKN046 07/04 Q1020 NOSIG

METARs EXPIRÉS :
  • 282130Z 33008KT 9999 BKN046 07/04 Q1021 NOSIG
  • 282100Z 33010KT 9999 FEW033 BKN046 07/04 Q1021 NOSIG
  • 282030Z 33010KT 9999 FEW032 BKN046 08/04 Q1021 NOSIG
  • 282000Z 33010KT 9999 FEW031 BKN046 08/04 Q1021 NOSIG
  • 281930Z 34010KT 9999 BKN031 BKN045 08/05 Q1021 NOSIG
  • 281900Z 35008KT 9999 FEW029 BKN045 08/05 Q1021 NOSIG
  • 281830Z 35007KT 9999 SCT029 BKN048 09/05 Q1021 NOSIG
  • 281800Z 36007KT 9999 BKN027 BKN050 09/04 Q1021 NOSIG
  • 281730Z 36008KT 9999 BKN026 BKN050 09/04 Q1020 NOSIG

TAF TAF LFLL
Valide du 28 à 18h jusqu'au 01 à 00h UTC


281700Z 2818/2924 35010KT 9999 BKN025
TEMPO 2904/2911 VRB03KT 3000 BR OVC003
PROB40
TEMPO 2906/2910 0600 FG VV///
BECMG 2912/2914 CAVOK



MET'MAP, la Météo Aéronautique d'un coup d'oeil ! - Copyright ORBIFLY Décembre 2007 - Disclaimer

ORBIFLY MET'MAP TEAM :

Programmation & Développement : Alexandra Zaïnal
Sur une idée originale de : Baudouin d'Aumeries
Soutien technique & logistique : Manuel Goepfert
Assistance : Marc-Olivier Méhu




SOURCES & CREDITS :

   NOAA